createdAt,value
2019-02-25T07:17:43.153Z,37.26
2019-02-25T07:20:14.457Z,35.49
2019-02-25T07:22:41.027Z,34.20
2019-02-25T07:25:15.344Z,32.82
2019-02-25T07:27:42.039Z,32.05
2019-02-25T07:30:11.081Z,31.46
2019-02-25T07:32:43.452Z,31.14
2019-02-25T07:35:02.206Z,30.93
2019-02-25T07:37:31.211Z,30.86
2019-02-25T07:39:53.086Z,30.69
2019-02-25T07:42:17.820Z,30.52
2019-02-25T07:44:46.713Z,30.44
2019-02-25T07:47:28.221Z,30.65
2019-02-25T07:49:58.435Z,30.96
2019-02-25T07:52:15.445Z,30.93
2019-02-25T07:54:47.605Z,31.04
2019-02-25T07:57:12.399Z,30.95
2019-02-25T07:59:23.870Z,30.98
2019-02-25T08:01:48.675Z,31.11
2019-02-25T08:04:20.438Z,31.05
2019-02-25T08:06:37.776Z,31.03
2019-02-25T08:09:01.044Z,30.82
2019-02-25T08:11:33.081Z,30.61
2019-02-25T08:13:49.991Z,30.52
2019-02-25T08:16:04.217Z,30.26
2019-02-25T08:18:18.147Z,30.05
2019-02-25T08:20:42.080Z,29.84
2019-02-25T08:23:14.015Z,29.91
2019-02-25T08:25:38.711Z,29.74
2019-02-25T08:28:14.261Z,29.81
2019-02-25T08:30:28.939Z,29.94
2019-02-25T08:33:09.786Z,29.99
2019-02-25T08:36:00.288Z,30.01
2019-02-25T08:38:24.262Z,30.12
2019-02-25T08:41:04.830Z,30.37
2019-02-25T08:43:27.426Z,30.51
2019-02-25T08:45:43.960Z,30.50
2019-02-25T08:48:13.369Z,30.74
2019-02-25T08:50:20.879Z,30.77
2019-02-25T08:52:28.123Z,30.57
2019-02-25T08:54:36.608Z,30.63
2019-02-25T08:56:44.662Z,30.66
2019-02-25T08:58:51.900Z,30.42
2019-02-25T09:00:59.190Z,30.39
2019-02-25T09:03:06.383Z,30.19
2019-02-25T09:05:14.809Z,30.12
2019-02-25T09:07:22.210Z,29.94
2019-02-25T09:09:30.137Z,29.73
2019-02-25T09:11:38.758Z,29.64
2019-02-25T09:13:46.293Z,29.66
2019-02-25T09:15:53.527Z,29.56
2019-02-25T09:17:57.831Z,29.56
2019-02-25T09:20:05.428Z,29.60
2019-02-25T09:22:12.589Z,29.63
2019-02-25T09:24:20.068Z,29.69
2019-02-25T09:26:37.188Z,29.87
2019-02-25T09:28:44.673Z,29.82
2019-02-25T09:30:52.017Z,29.87
2019-02-25T09:33:00.116Z,30.03
2019-02-25T09:35:07.712Z,30.12
2019-02-25T09:37:14.669Z,30.10
2019-02-25T09:39:22.066Z,30.03
2019-02-25T09:41:31.333Z,29.96
2019-02-25T09:43:38.623Z,29.91
2019-02-25T09:45:46.642Z,29.84
2019-02-25T09:47:54.094Z,29.92
2019-02-25T09:50:15.044Z,29.84
2019-02-25T09:52:22.359Z,29.59
2019-02-25T09:54:30.006Z,29.64
2019-02-25T09:56:37.657Z,29.69
2019-02-25T09:58:44.850Z,29.82
2019-02-25T10:00:52.195Z,29.87
2019-02-25T10:02:59.498Z,29.91
2019-02-25T10:05:08.854Z,30.04
2019-02-25T10:07:16.329Z,30.09
2019-02-25T10:09:29.812Z,30.23
2019-02-25T10:11:33.616Z,30.24
2019-02-25T10:13:43.162Z,30.28
2019-02-25T10:15:50.857Z,30.11
2019-02-25T10:17:58.437Z,30.07
2019-02-25T10:20:06.032Z,29.87
2019-02-25T10:22:13.752Z,29.76
2019-02-25T10:24:21.112Z,29.62
2019-02-25T10:26:29.537Z,29.51
2019-02-25T10:28:37.468Z,29.43
2019-02-25T10:30:52.547Z,29.38
2019-02-25T10:32:57.785Z,29.32
2019-02-25T10:35:05.849Z,29.60
2019-02-25T10:37:15.095Z,29.69
2019-02-25T10:39:22.455Z,29.93
2019-02-25T10:41:29.713Z,30.01
2019-02-25T10:43:38.373Z,30.05
2019-02-25T10:45:46.011Z,30.12
2019-02-25T10:47:58.251Z,29.87
2019-02-25T10:50:05.254Z,29.96
2019-02-25T10:52:12.951Z,30.08
2019-02-25T10:54:23.157Z,30.20
2019-02-25T10:56:37.286Z,30.05
2019-02-25T10:58:44.624Z,29.99
2019-02-25T11:00:51.974Z,29.87
2019-02-25T11:02:59.154Z,29.53
2019-02-25T11:05:07.700Z,29.41
2019-02-25T11:07:15.276Z,29.33
2019-02-25T11:09:46.091Z,29.21
2019-02-25T11:11:55.456Z,29.15
2019-02-25T11:14:05.013Z,29.12
2019-02-25T11:16:13.930Z,29.03
2019-02-25T11:18:22.443Z,29.06
2019-02-25T11:20:31.839Z,29.11
2019-02-25T11:22:39.816Z,29.28
2019-02-25T11:24:49.809Z,29.15
2019-02-25T11:26:57.342Z,29.28
2019-02-25T11:29:08.148Z,29.35
2019-02-25T11:31:15.818Z,29.41
2019-02-25T11:33:25.185Z,29.54
2019-02-25T11:35:34.174Z,29.75
2019-02-25T11:37:41.363Z,29.75
2019-02-25T11:39:48.587Z,30.07
2019-02-25T11:42:03.299Z,29.94
2019-02-25T11:44:11.356Z,30.06
2019-02-25T11:46:19.457Z,30.04
2019-02-25T11:48:26.772Z,29.93
2019-02-25T11:50:34.318Z,29.68
2019-02-25T11:52:41.692Z,29.61
2019-02-25T11:54:48.923Z,29.66
2019-02-25T11:56:57.717Z,29.67
2019-02-25T11:59:05.827Z,29.56
2019-02-25T12:01:13.953Z,29.50
2019-02-25T12:03:21.276Z,29.76
2019-02-25T12:05:28.589Z,29.72
2019-02-25T12:07:36.061Z,29.79
2019-02-25T12:09:43.097Z,29.77
2019-02-25T12:11:50.484Z,29.97
2019-02-25T12:13:57.798Z,29.93
2019-02-25T12:16:04.973Z,30.02
2019-02-25T12:18:13.076Z,30.01
2019-02-25T12:20:20.818Z,29.86
2019-02-25T12:22:28.029Z,29.72
2019-02-25T12:24:36.929Z,29.54
2019-02-25T12:26:44.279Z,29.27
2019-02-25T12:28:51.970Z,29.21
2019-02-25T12:30:59.195Z,28.99
2019-02-25T12:33:06.566Z,29.02
2019-02-25T12:35:14.095Z,28.86
2019-02-25T12:37:21.585Z,28.86
2019-02-25T12:39:30.313Z,28.78
2019-02-25T12:41:39.310Z,28.60
2019-02-25T12:43:50.669Z,28.56
2019-02-25T12:45:57.869Z,28.39
2019-02-25T12:48:06.146Z,28.33
2019-02-25T12:50:14.883Z,28.27
2019-02-25T12:52:23.037Z,28.11
2019-02-25T12:54:55.543Z,28.13
2019-02-25T12:57:02.982Z,28.01
2019-02-25T12:59:10.385Z,27.96
2019-02-25T13:01:19.251Z,28.00
2019-02-25T13:03:26.408Z,27.85
2019-02-25T13:05:35.153Z,27.78
2019-02-25T13:07:42.504Z,27.79
2019-02-25T13:09:51.186Z,27.71
2019-02-25T13:11:59.387Z,27.71
2019-02-25T13:14:07.595Z,27.65
2019-02-25T13:16:15.403Z,27.69
2019-02-25T13:18:22.523Z,27.66
2019-02-25T13:20:29.947Z,27.53
2019-02-25T13:22:37.199Z,27.75
2019-02-25T13:24:44.716Z,27.74
2019-02-25T13:26:51.944Z,27.70
2019-02-25T13:29:00.700Z,27.74
2019-02-25T13:31:10.167Z,28.12
2019-02-25T13:33:18.409Z,28.32
2019-02-25T13:35:25.803Z,27.95
2019-02-25T13:37:33.032Z,27.94
2019-02-25T13:39:40.255Z,28.15
2019-02-25T13:41:47.689Z,28.39
2019-02-25T13:43:54.832Z,28.85
2019-02-25T13:46:03.351Z,28.57
2019-02-25T13:48:10.563Z,28.91
2019-02-25T13:50:18.109Z,28.62
2019-02-25T13:52:25.253Z,28.78
2019-02-25T13:54:32.608Z,29.08
2019-02-25T13:56:40.332Z,28.93
2019-02-25T13:58:47.777Z,29.35
2019-02-25T14:00:54.966Z,28.93
2019-02-25T14:03:03.375Z,29.44
2019-02-25T14:05:12.190Z,28.59
2019-02-25T14:07:19.978Z,28.50
2019-02-25T14:09:27.978Z,28.70
2019-02-25T14:11:35.576Z,29.39
2019-02-25T14:13:45.036Z,28.23
2019-02-25T14:15:51.691Z,28.24
2019-02-25T14:17:59.989Z,28.73
2019-02-25T14:20:11.887Z,29.74
2019-02-25T14:22:20.816Z,29.50
2019-02-25T14:24:28.870Z,28.65
2019-02-25T14:26:45.350Z,29.62
2019-02-25T14:28:53.823Z,28.95
2019-02-25T14:31:01.622Z,29.35
2019-02-25T14:33:12.643Z,28.99
2019-02-25T14:35:28.514Z,28.83
2019-02-25T14:37:42.266Z,28.35
2019-02-25T14:40:00.679Z,28.21
2019-02-25T14:42:16.538Z,29.77
2019-02-25T14:44:29.825Z,28.42
2019-02-25T14:46:38.108Z,28.36
2019-02-25T14:48:45.752Z,28.47
2019-02-25T14:50:56.033Z,29.53
2019-02-25T14:53:08.414Z,28.10
2019-02-25T14:55:18.586Z,28.03
2019-02-25T14:57:26.825Z,28.13
2019-02-25T14:59:35.013Z,28.23
2019-02-25T15:01:42.790Z,28.94
2019-02-25T15:03:50.701Z,28.80
2019-02-25T15:05:59.244Z,28.88
2019-02-25T15:08:13.534Z,28.66
2019-02-25T15:10:20.979Z,28.98
2019-02-25T15:12:29.412Z,29.04
2019-02-25T15:14:39.588Z,28.87
2019-02-25T15:17:00.946Z,28.98
2019-02-25T15:19:15.132Z,28.81
2019-02-25T15:21:23.476Z,28.81
2019-02-25T15:23:31.379Z,28.71
2019-02-25T15:25:48.457Z,28.70
2019-02-25T15:28:07.126Z,28.38
2019-02-25T15:30:31.133Z,29.05
2019-02-25T15:32:41.569Z,28.63
2019-02-25T15:35:07.412Z,28.56
2019-02-25T15:37:20.861Z,28.81
2019-02-25T15:39:34.776Z,28.66
2019-02-25T15:41:44.076Z,28.83
2019-02-25T15:44:00.233Z,29.43
2019-02-25T15:46:10.429Z,30.09
2019-02-25T15:48:18.735Z,29.22
2019-02-25T15:50:26.046Z,29.21
2019-02-25T15:52:39.908Z,28.99
2019-02-25T15:54:43.788Z,28.90
2019-02-25T15:56:51.241Z,28.77
2019-02-25T15:58:59.358Z,28.53
2019-02-25T16:01:08.136Z,28.59
2019-02-25T16:03:20.200Z,28.81
2019-02-25T16:05:29.545Z,29.48
2019-02-25T16:07:41.501Z,28.71
2019-02-25T16:09:50.134Z,28.64
2019-02-25T16:11:59.030Z,28.62
2019-02-25T16:14:09.128Z,28.81
2019-02-25T16:16:17.119Z,28.76
2019-02-25T16:18:27.846Z,28.89
2019-02-25T16:20:38.722Z,29.01
2019-02-25T16:22:45.911Z,29.13
2019-02-25T16:24:53.637Z,29.20
2019-02-25T16:27:02.594Z,29.31
2019-02-25T16:29:11.809Z,29.24
2019-02-25T16:31:20.173Z,29.20
2019-02-25T16:33:28.313Z,29.11
2019-02-25T16:35:38.566Z,29.16
2019-02-25T16:37:45.847Z,28.97
2019-02-25T16:39:55.945Z,28.77
2019-02-25T16:42:03.419Z,28.69
2019-02-25T16:44:11.043Z,28.47
2019-02-25T16:46:20.353Z,28.35
2019-02-25T16:48:30.390Z,28.51
2019-02-25T16:50:39.817Z,28.71
2019-02-25T16:52:49.333Z,28.90
2019-02-25T16:54:57.010Z,28.42
2019-02-25T16:57:16.251Z,28.32
2019-02-25T16:59:25.043Z,28.43
2019-02-25T17:01:34.963Z,28.80
2019-02-25T17:03:48.225Z,28.62
2019-02-25T17:05:55.759Z,29.32
2019-02-25T17:08:14.530Z,29.18
2019-02-25T17:10:29.170Z,28.65
2019-02-25T17:12:35.662Z,28.62
2019-02-25T17:14:56.709Z,28.61
2019-02-25T17:17:06.238Z,28.71
2019-02-25T17:19:14.980Z,28.84
2019-02-25T17:21:24.008Z,29.46
2019-02-25T17:24:07.381Z,29.29
2019-02-25T17:26:38.522Z,29.11
2019-02-25T17:29:08.247Z,28.90
2019-02-25T17:31:22.900Z,28.92
2019-02-25T17:33:38.493Z,28.92
2019-02-25T17:35:47.626Z,29.19
2019-02-25T17:38:10.723Z,29.32
2019-02-25T17:43:09.547Z,29.14
2019-02-25T17:45:27.722Z,28.68
2019-02-25T17:47:39.225Z,29.35
2019-02-25T17:49:50.652Z,28.78
2019-02-25T17:52:01.725Z,29.03
2019-02-25T17:54:12.497Z,28.86
2019-02-25T17:56:22.555Z,28.73
2019-02-25T17:58:31.600Z,28.60
2019-02-25T18:00:42.409Z,28.28
2019-02-25T18:02:52.923Z,28.11
2019-02-25T18:05:02.553Z,28.18
2019-02-25T18:07:09.948Z,28.23
2019-02-25T18:09:18.262Z,28.51
2019-02-25T18:11:30.663Z,28.33
2019-02-25T18:13:42.961Z,28.49
2019-02-25T18:15:53.677Z,29.18
2019-02-25T18:18:07.302Z,28.81
2019-02-25T18:20:23.276Z,28.61
2019-02-25T18:22:38.573Z,28.47
2019-02-25T18:24:53.698Z,28.11
2019-02-25T18:27:01.069Z,27.83
2019-02-25T18:29:09.420Z,27.50
2019-02-25T18:31:22.534Z,27.97
2019-02-25T18:33:38.153Z,27.83
2019-02-25T18:35:45.793Z,28.16
2019-02-25T18:37:55.188Z,28.31
2019-02-25T18:40:02.646Z,29.17
2019-02-25T18:42:16.291Z,28.39
2019-02-25T18:44:25.516Z,27.80
2019-02-25T18:46:32.764Z,27.87
2019-02-25T18:48:42.467Z,28.24
2019-02-25T18:50:52.187Z,28.45
2019-02-25T18:53:06.835Z,28.71
2019-02-25T18:55:18.592Z,29.13
2019-02-25T18:57:34.980Z,29.33
2019-02-25T18:59:57.063Z,29.83
2019-02-25T19:02:12.826Z,29.88
2019-02-25T19:04:28.579Z,30.74
2019-02-25T19:06:43.584Z,30.18
2019-02-25T19:08:58.404Z,30.22
2019-02-25T19:11:12.877Z,30.74
2019-02-25T19:13:27.202Z,30.64
2019-02-25T19:15:37.403Z,30.46
2019-02-25T19:17:52.158Z,30.60
2019-02-25T19:20:04.049Z,30.36
2019-02-25T19:22:13.192Z,30.45
2019-02-25T19:24:21.131Z,30.70
2019-02-25T19:26:28.379Z,31.25
2019-02-25T19:28:45.973Z,30.94
2019-02-25T19:30:57.490Z,32.28
2019-02-25T19:33:10.895Z,30.45
2019-02-25T19:35:21.868Z,32.17
2019-02-25T19:37:32.947Z,30.67
2019-02-25T19:39:51.144Z,30.56
2019-02-25T19:42:00.603Z,29.96
2019-02-25T19:44:10.654Z,32.10
2019-02-25T19:46:19.712Z,30.58
2019-02-25T19:48:29.391Z,29.54
2019-02-25T19:50:47.757Z,29.71
2019-02-25T19:52:46.653Z,29.07
2019-02-25T19:54:54.366Z,29.36
2019-02-25T19:57:16.593Z,29.20
2019-02-25T19:59:28.696Z,29.74
2019-02-25T20:01:45.233Z,29.67
2019-02-25T20:04:12.173Z,33.55
2019-02-25T20:06:21.188Z,30.34
2019-02-25T20:08:29.467Z,29.39
2019-02-25T20:10:46.492Z,29.18
2019-02-25T20:12:59.449Z,29.18
2019-02-25T20:15:15.505Z,29.08
2019-02-25T20:17:30.502Z,29.65
2019-02-25T20:19:45.636Z,29.10
2019-02-25T20:21:53.073Z,29.19
2019-02-25T20:24:03.277Z,29.58
2019-02-25T20:26:13.232Z,29.35
2019-02-25T20:28:26.790Z,29.46
2019-02-25T20:30:46.807Z,30.85
2019-02-25T20:32:54.194Z,29.93
2019-02-25T20:35:09.504Z,30.06
2019-02-25T20:37:29.379Z,30.80
2019-02-25T20:39:44.821Z,31.48
2019-02-25T20:41:54.257Z,30.42
2019-02-25T20:44:07.866Z,30.58
2019-02-25T20:46:15.260Z,29.42
2019-02-25T20:48:22.718Z,29.43
2019-02-25T20:50:29.981Z,28.97
2019-02-25T20:52:38.731Z,29.02
2019-02-25T20:54:52.308Z,29.03
2019-02-25T20:57:14.298Z,29.18
2019-02-25T20:59:28.080Z,29.12
2019-02-25T21:01:37.130Z,29.22
2019-02-25T21:03:50.361Z,29.29
2019-02-25T21:06:04.495Z,29.45
2019-02-25T21:08:23.539Z,29.60
2019-02-25T21:10:35.369Z,29.62
2019-02-25T21:12:43.185Z,29.58
2019-02-25T21:14:50.630Z,30.15
2019-02-25T21:17:00.467Z,30.53
2019-02-25T21:19:10.171Z,30.37
2019-02-25T21:21:17.266Z,30.48
2019-02-25T21:23:24.609Z,33.18
2019-02-25T21:25:36.746Z,31.70
2019-02-25T21:27:44.720Z,32.04
2019-02-25T21:29:53.096Z,31.16
2019-02-25T21:32:02.319Z,30.55
2019-02-25T21:34:15.269Z,31.03
2019-02-25T21:36:19.912Z,30.33
2019-02-25T21:38:30.249Z,31.43
2019-02-25T21:40:54.906Z,28.85
2019-02-25T21:43:05.568Z,29.01
2019-02-25T21:45:16.031Z,28.66
2019-02-25T21:47:26.342Z,29.01
2019-02-25T21:49:38.815Z,29.33
2019-02-25T21:51:50.745Z,29.30
2019-02-25T21:53:59.984Z,29.68
2019-02-25T21:56:08.638Z,29.28
2019-02-25T21:58:16.806Z,29.46
2019-02-25T22:00:34.518Z,29.61
2019-02-25T22:02:50.410Z,29.45
2019-02-25T22:05:01.520Z,29.67
2019-02-25T22:09:45.883Z,29.95
2019-02-25T22:12:04.878Z,30.22
2019-02-25T22:14:14.118Z,30.25
2019-02-25T22:16:23.481Z,29.97
2019-02-25T22:18:32.431Z,30.15
2019-02-25T22:20:42.722Z,29.87
2019-02-25T22:22:54.419Z,29.79
2019-02-25T22:25:01.156Z,29.82
2019-02-25T22:27:07.333Z,29.76
2019-02-25T22:29:15.319Z,29.77
2019-02-25T22:31:22.622Z,29.62
2019-02-25T22:33:30.740Z,29.39
2019-02-25T22:35:40.587Z,29.50
2019-02-25T22:37:52.052Z,29.53
2019-02-25T22:39:57.435Z,29.64
2019-02-25T22:42:05.688Z,29.93
2019-02-25T22:44:14.843Z,30.11
2019-02-25T22:46:23.520Z,30.11
2019-02-25T22:48:32.014Z,30.04
2019-02-25T22:50:39.722Z,29.98
2019-02-25T22:52:46.912Z,30.55
2019-02-25T22:54:54.967Z,30.44
2019-02-25T22:57:02.285Z,29.58
2019-02-25T22:59:09.269Z,29.51
2019-02-25T23:01:18.220Z,29.84
2019-02-25T23:03:27.508Z,29.59
2019-02-25T23:05:34.040Z,29.83
2019-02-25T23:07:43.479Z,29.88
2019-02-25T23:09:52.315Z,29.96
2019-02-25T23:12:00.765Z,29.89
2019-02-25T23:14:09.457Z,29.83
2019-02-25T23:16:18.697Z,29.87
2019-02-25T23:18:28.110Z,30.04
2019-02-25T23:20:35.480Z,30.13
2019-02-25T23:22:42.662Z,30.13
2019-02-25T23:24:49.946Z,30.09
2019-02-25T23:26:59.537Z,30.28
2019-02-25T23:29:06.841Z,30.19
2019-02-25T23:31:15.099Z,30.28
2019-02-25T23:33:24.533Z,29.81
2019-02-25T23:35:32.891Z,29.65
2019-02-25T23:37:41.032Z,29.48
2019-02-25T23:39:48.955Z,29.64
2019-02-25T23:41:56.964Z,29.32
2019-02-25T23:44:04.281Z,29.20
2019-02-25T23:46:11.968Z,29.13
2019-02-25T23:48:20.259Z,29.09
2019-02-25T23:50:29.755Z,29.27
2019-02-25T23:52:37.817Z,29.27
2019-02-25T23:54:47.120Z,29.60
2019-02-25T23:56:55.101Z,29.63
2019-02-25T23:59:02.698Z,29.59
